Time;durP1;ratioP1;P1;durP2;ratioP2;P2;SDS_P1;SDS_P2;PMS_P1;PMS_P2;Temp;Humidity;BMP_temperature;BMP_pressure;BME280_temperature;BME280_humidity;BME280_pressure;Samples;Min_cycle;Max_cycle;Signal;HPM_P1;HPM_P2
2022/07/27 00:01:39;;;;;;;0.00;0.00;;;;;;;;;;5036937;28;20083;-61
2022/07/27 00:04:04;;;;;;;0.05;0.05;;;;;;;;;;5037181;28;20306;-61
2022/07/27 00:06:30;;;;;;;0.00;0.00;;;;;;;;;;5036631;28;20106;-62
2022/07/27 00:08:55;;;;;;;0.00;0.00;;;;;;;;;;5040677;28;20024;-62
2022/07/27 00:11:20;;;;;;;0.00;0.00;;;;;;;;;;5039318;28;20309;-63
2022/07/27 00:13:46;;;;;;;0.00;0.00;;;;;;;;;;5038788;28;20029;-62
2022/07/27 00:16:11;;;;;;;0.00;0.00;;;;;;;;;;5039560;28;20018;-63
2022/07/27 00:18:37;;;;;;;0.00;0.00;;;;;;;;;;5038116;28;20025;-63
2022/07/27 00:21:07;;;;;;;0.00;0.00;;;;;;;;;;5038628;28;20112;-63
2022/07/27 00:23:33;;;;;;;0.00;0.00;;;;;;;;;;5037875;28;20048;-63
2022/07/27 00:25:58;;;;;;;0.00;0.00;;;;;;;;;;5038451;28;20471;-62
2022/07/27 00:28:26;;;;;;;0.00;0.00;;;;;;;;;;5037228;28;20024;-64
2022/07/27 00:30:51;;;;;;;0.00;0.00;;;;;;;;;;5038443;28;20036;-63
2022/07/27 00:33:16;;;;;;;0.00;0.00;;;;;;;;;;5038174;28;20386;-63
2022/07/27 00:35:42;;;;;;;0.00;0.00;;;;;;;;;;5038202;28;20021;-62
2022/07/27 00:38:07;;;;;;;0.00;0.00;;;;;;;;;;5040111;28;20013;-63
2022/07/27 00:40:32;;;;;;;0.00;0.00;;;;;;;;;;5039068;28;20541;-63
2022/07/27 00:42:57;;;;;;;0.00;0.00;;;;;;;;;;5038400;28;20029;-62
2022/07/27 00:45:23;;;;;;;0.10;0.00;;;;;;;;;;5037944;28;20052;-62
2022/07/27 00:47:48;;;;;;;0.00;0.00;;;;;;;;;;5038270;28;20026;-62
2022/07/27 00:50:13;;;;;;;0.00;0.00;;;;;;;;;;5038057;28;20096;-62
2022/07/27 00:52:39;;;;;;;0.00;0.00;;;;;;;;;;5037113;28;20313;-62
2022/07/27 00:55:07;;;;;;;0.00;0.00;;;;;;;;;;5038777;28;20029;-63
2022/07/27 00:57:35;;;;;;;0.00;0.00;;;;;;;;;;5039045;28;20067;-63
2022/07/27 01:00:00;;;;;;;0.00;0.00;;;;;;;;;;5041592;28;20049;-63
2022/07/27 01:02:28;;;;;;;0.00;0.00;;;;;;;;;;5041816;28;20029;-63
2022/07/27 01:04:56;;;;;;;0.00;0.00;;;;;;;;;;5042077;28;20084;-63
2022/07/27 01:07:21;;;;;;;0.00;0.00;;;;;;;;;;5042712;28;20025;-63
2022/07/27 01:09:58;;;;;;;0.03;0.00;;;;;;;;;;5043226;28;20040;-63
2022/07/27 01:12:28;;;;;;;0.00;0.00;;;;;;;;;;5041468;28;20021;-63
2022/07/27 01:15:02;;;;;;;;;;;;;;;;;;5042619;28;20029;-63
2022/07/27 01:17:30;;;;;;;0.00;0.00;;;;;;;;;;5042087;28;20030;-63
2022/07/27 01:19:58;;;;;;;0.00;0.00;;;;;;;;;;5042022;28;20029;-64
2022/07/27 01:22:24;;;;;;;0.00;0.00;;;;;;;;;;5041204;28;20107;-63
2022/07/27 01:24:49;;;;;;;0.00;0.00;;;;;;;;;;5041286;28;20112;-63
2022/07/27 01:27:14;;;;;;;0.00;0.00;;;;;;;;;;5042249;28;20362;-61
2022/07/27 01:29:40;;;;;;;0.08;0.08;;;;;;;;;;5041471;28;20280;-62
2022/07/27 01:32:08;;;;;;;0.00;0.00;;;;;;;;;;5040855;28;20409;-62
2022/07/27 01:34:34;;;;;;;0.10;0.03;;;;;;;;;;5041513;28;20094;-62
2022/07/27 01:36:59;;;;;;;0.00;0.00;;;;;;;;;;5043227;28;20100;-62
2022/07/27 01:39:25;;;;;;;0.05;0.05;;;;;;;;;;5042390;28;20026;-63
2022/07/27 01:41:50;;;;;;;0.00;0.00;;;;;;;;;;5041128;28;20032;-62
2022/07/27 01:44:15;;;;;;;0.00;0.00;;;;;;;;;;5041077;28;20627;-62
2022/07/27 01:46:42;;;;;;;0.00;0.00;;;;;;;;;;5038521;28;20029;-62
2022/07/27 01:49:08;;;;;;;0.00;0.00;;;;;;;;;;5039803;28;20030;-62
2022/07/27 01:51:33;;;;;;;0.00;0.00;;;;;;;;;;5038976;28;20030;-62
2022/07/27 01:54:01;;;;;;;0.38;0.00;;;;;;;;;;5039023;28;20072;-61
2022/07/27 01:56:29;;;;;;;0.00;0.00;;;;;;;;;;5037745;28;20037;-61
2022/07/27 01:58:54;;;;;;;0.00;0.00;;;;;;;;;;5040391;28;20134;-61
2022/07/27 02:01:20;;;;;;;0.00;0.00;;;;;;;;;;5040250;28;20108;-62
2022/07/27 02:03:45;;;;;;;0.00;0.00;;;;;;;;;;5039810;28;20283;-61
2022/07/27 02:06:12;;;;;;;0.23;0.23;;;;;;;;;;5042654;28;20082;-62
2022/07/27 02:08:38;;;;;;;0.00;0.00;;;;;;;;;;5040767;28;20260;-60
2022/07/27 02:13:47;;;;;;;0.00;0.00;;;;;;;;;;5040908;28;20091;-61
2022/07/27 02:16:13;;;;;;;0.00;0.00;;;;;;;;;;5039869;28;20021;-64
2022/07/27 02:18:41;;;;;;;0.00;0.00;;;;;;;;;;5040760;28;20049;-60
2022/07/27 02:21:09;;;;;;;0.00;0.00;;;;;;;;;;5039758;28;20024;-60
2022/07/27 02:23:35;;;;;;;0.00;0.00;;;;;;;;;;5039811;28;20025;-60
2022/07/27 02:26:04;;;;;;;0.00;0.00;;;;;;;;;;5044555;28;20382;-61
2022/07/27 02:28:29;;;;;;;0.00;0.00;;;;;;;;;;5040745;28;20029;-60
2022/07/27 02:30:57;;;;;;;0.00;0.00;;;;;;;;;;5040311;28;20037;-61
2022/07/27 02:33:22;;;;;;;0.00;0.00;;;;;;;;;;5042064;28;20033;-60
2022/07/27 02:35:51;;;;;;;0.17;0.17;;;;;;;;;;5039000;28;20493;-61
2022/07/27 02:38:19;;;;;;;0.05;0.05;;;;;;;;;;5040770;28;20108;-60
2022/07/27 02:40:44;;;;;;;0.00;0.00;;;;;;;;;;5039935;28;20029;-61
2022/07/27 02:43:09;;;;;;;0.10;0.10;;;;;;;;;;5040725;28;20470;-60
2022/07/27 02:45:37;;;;;;;0.00;0.00;;;;;;;;;;5039406;28;20508;-60
2022/07/27 02:48:02;;;;;;;0.10;0.10;;;;;;;;;;5039101;28;20093;-60
2022/07/27 02:50:27;;;;;;;0.00;0.00;;;;;;;;;;5041146;28;20021;-61
2022/07/27 02:52:52;;;;;;;0.00;0.00;;;;;;;;;;5040602;28;20025;-61
2022/07/27 02:55:18;;;;;;;0.00;0.00;;;;;;;;;;5039312;28;20633;-61
2022/07/27 02:57:43;;;;;;;0.00;0.00;;;;;;;;;;5039538;28;20029;-61
2022/07/27 03:00:10;;;;;;;0.00;0.00;;;;;;;;;;5040077;28;20383;-60
2022/07/27 03:02:38;;;;;;;0.00;0.00;;;;;;;;;;5040987;28;20590;-61
2022/07/27 03:05:07;;;;;;;0.00;0.00;;;;;;;;;;5038517;28;20053;-61
2022/07/27 03:07:32;;;;;;;0.00;0.00;;;;;;;;;;5028276;28;20033;-61
2022/07/27 03:10:02;;;;;;;0.03;0.00;;;;;;;;;;5038797;28;20040;-60
2022/07/27 03:12:27;;;;;;;0.00;0.00;;;;;;;;;;5039814;28;20021;-61
2022/07/27 03:14:55;;;;;;;0.95;0.10;;;;;;;;;;5038804;28;20009;-60
2022/07/27 03:17:29;;;;;;;0.00;0.00;;;;;;;;;;5040398;28;20017;-61
2022/07/27 03:19:57;;;;;;;0.00;0.00;;;;;;;;;;5037691;28;20021;-60
2022/07/27 03:22:23;;;;;;;0.43;0.43;;;;;;;;;;5036594;28;20092;-61
2022/07/27 03:24:51;;;;;;;0.00;0.00;;;;;;;;;;5039668;28;20567;-60
2022/07/27 03:27:16;;;;;;;0.00;0.00;;;;;;;;;;5039317;28;20083;-61
2022/07/27 03:29:41;;;;;;;0.00;0.00;;;;;;;;;;5038834;28;20025;-61
2022/07/27 03:32:07;;;;;;;0.00;0.00;;;;;;;;;;5039913;28;20769;-61
2022/07/27 03:34:32;;;;;;;0.00;0.00;;;;;;;;;;5039346;28;20025;-61
2022/07/27 03:37:03;;;;;;;0.08;0.08;;;;;;;;;;5038231;28;20019;-61
2022/07/27 03:39:28;;;;;;;0.00;0.00;;;;;;;;;;5039290;28;20033;-61
2022/07/27 03:41:56;;;;;;;0.00;0.00;;;;;;;;;;5038600;28;20029;-60
2022/07/27 03:44:27;;;;;;;0.00;0.00;;;;;;;;;;5037280;28;20040;-60
2022/07/27 03:46:58;;;;;;;0.00;0.00;;;;;;;;;;5035309;28;20383;-61
2022/07/27 03:49:23;;;;;;;0.00;0.00;;;;;;;;;;5036779;28;20473;-61
2022/07/27 03:51:48;;;;;;;0.75;0.22;;;;;;;;;;5038712;28;20022;-61
2022/07/27 03:54:16;;;;;;;0.00;0.00;;;;;;;;;;5037054;28;20017;-60
2022/07/27 03:56:42;;;;;;;0.35;0.35;;;;;;;;;;5037647;28;20021;-60
2022/07/27 03:59:07;;;;;;;0.00;0.00;;;;;;;;;;5040000;28;20071;-61
2022/07/27 04:01:35;;;;;;;0.00;0.00;;;;;;;;;;5037928;28;20029;-61
2022/07/27 04:04:09;;;;;;;0.00;0.00;;;;;;;;;;5039042;28;20644;-61
2022/07/27 04:06:34;;;;;;;0.20;0.20;;;;;;;;;;5038592;28;20024;-61
2022/07/27 04:08:59;;;;;;;0.00;0.00;;;;;;;;;;5039296;28;20034;-60
2022/07/27 04:11:25;;;;;;;0.00;0.00;;;;;;;;;;5038885;28;20013;-61
2022/07/27 04:13:57;;;;;;;0.10;0.10;;;;;;;;;;5038317;28;20355;-60
2022/07/27 04:16:22;;;;;;;0.00;0.00;;;;;;;;;;5038796;28;20529;-61
2022/07/27 04:18:48;;;;;;;0.00;0.00;;;;;;;;;;5038007;28;20096;-61
2022/07/27 04:21:14;;;;;;;0.05;0.05;;;;;;;;;;5038554;28;20286;-61
2022/07/27 04:23:40;;;;;;;0.03;0.03;;;;;;;;;;5038111;28;20029;-61
2022/07/27 04:26:08;;;;;;;0.00;0.00;;;;;;;;;;5037875;28;20123;-61
2022/07/27 04:28:35;;;;;;;0.00;0.00;;;;;;;;;;5040562;28;20426;-61
2022/07/27 04:31:06;;;;;;;0.00;0.00;;;;;;;;;;5038433;28;20060;-61
2022/07/27 04:33:31;;;;;;;2.05;1.98;;;;;;;;;;5038379;28;20467;-60
2022/07/27 04:35:57;;;;;;;5.28;1.45;;;;;;;;;;5038385;28;20083;-60
2022/07/27 04:38:22;;;;;;;0.00;0.00;;;;;;;;;;5038280;28;20790;-61
2022/07/27 04:40:53;;;;;;;0.03;0.03;;;;;;;;;;5037755;28;20308;-61
2022/07/27 04:43:22;;;;;;;0.30;0.30;;;;;;;;;;5038147;28;20041;-61
2022/07/27 04:45:53;;;;;;;0.00;0.00;;;;;;;;;;5036717;28;20474;-61
2022/07/27 04:48:18;;;;;;;0.00;0.00;;;;;;;;;;5038248;28;20555;-61
2022/07/27 04:50:44;;;;;;;0.00;0.00;;;;;;;;;;5037459;28;20179;-61
2022/07/27 04:53:10;;;;;;;0.08;0.08;;;;;;;;;;5038241;28;20021;-61
2022/07/27 04:55:45;;;;;;;0.00;0.00;;;;;;;;;;5017661;28;20481;-61
2022/07/27 04:58:11;;;;;;;0.20;0.10;;;;;;;;;;5040833;28;20028;-61
2022/07/27 05:00:36;;;;;;;0.00;0.00;;;;;;;;;;5038128;28;20489;-61
2022/07/27 05:03:02;;;;;;;3.00;0.10;;;;;;;;;;5038467;28;20033;-61
2022/07/27 05:05:27;;;;;;;0.00;0.00;;;;;;;;;;5038364;28;20041;-61
2022/07/27 05:07:53;;;;;;;0.00;0.00;;;;;;;;;;5037883;28;20597;-61
2022/07/27 05:10:18;;;;;;;0.00;0.00;;;;;;;;;;5028289;28;20159;-61
2022/07/27 05:12:46;;;;;;;0.10;0.10;;;;;;;;;;5037389;28;20021;-61
2022/07/27 05:15:12;;;;;;;0.00;0.00;;;;;;;;;;5039261;28;20768;-62
2022/07/27 05:17:37;;;;;;;0.00;0.00;;;;;;;;;;5037359;28;20057;-61
2022/07/27 05:20:03;;;;;;;0.00;0.00;;;;;;;;;;5037802;28;20057;-61
2022/07/27 05:22:30;;;;;;;0.88;0.47;;;;;;;;;;5037048;28;20461;-61
2022/07/27 05:24:58;;;;;;;0.00;0.00;;;;;;;;;;5036898;28;20018;-61
2022/07/27 05:27:26;;;;;;;0.10;0.10;;;;;;;;;;5038459;28;20037;-62
2022/07/27 05:29:55;;;;;;;0.40;0.40;;;;;;;;;;5036164;28;20474;-62
2022/07/27 05:32:20;;;;;;;0.10;0.10;;;;;;;;;;5037115;28;20079;-60
2022/07/27 05:34:46;;;;;;;0.10;0.10;;;;;;;;;;5033306;28;20033;-61
2022/07/27 05:37:14;;;;;;;2.00;0.45;;;;;;;;;;5037960;28;20028;-61
2022/07/27 05:39:41;;;;;;;0.00;0.00;;;;;;;;;;5036104;28;20055;-61
2022/07/27 05:42:07;;;;;;;0.00;0.00;;;;;;;;;;5037921;28;20035;-57
2022/07/27 05:44:32;;;;;;;0.00;0.00;;;;;;;;;;5043476;28;20033;-58
2022/07/27 05:46:57;;;;;;;0.97;0.63;;;;;;;;;;5038399;28;20029;-58
2022/07/27 05:49:22;;;;;;;0.00;0.00;;;;;;;;;;5033657;28;20831;-58
2022/07/27 05:51:50;;;;;;;0.00;0.00;;;;;;;;;;5037494;28;20023;-58
2022/07/27 05:54:18;;;;;;;0.00;0.00;;;;;;;;;;5042964;28;20083;-57
2022/07/27 05:56:44;;;;;;;0.00;0.00;;;;;;;;;;5043767;28;20053;-56
2022/07/27 05:59:09;;;;;;;0.00;0.00;;;;;;;;;;5040553;28;20021;-57
2022/07/27 06:01:35;;;;;;;0.00;0.00;;;;;;;;;;5040645;28;20017;-57
2022/07/27 06:04:09;;;;;;;0.00;0.00;;;;;;;;;;5041842;28;20046;-57
2022/07/27 06:09:23;;;;;;;0.00;0.00;;;;;;;;;;5043063;28;20469;-58
2022/07/27 06:11:48;;;;;;;0.00;0.00;;;;;;;;;;5043640;28;20350;-58
2022/07/27 06:14:14;;;;;;;0.00;0.00;;;;;;;;;;5041643;28;20020;-58
2022/07/27 06:16:39;;;;;;;0.00;0.00;;;;;;;;;;5038974;28;20033;-57
2022/07/27 06:19:04;;;;;;;0.90;0.30;;;;;;;;;;5043586;28;20470;-58
2022/07/27 06:21:30;;;;;;;0.00;0.00;;;;;;;;;;5042692;28;20385;-57
2022/07/27 06:23:56;;;;;;;0.00;0.00;;;;;;;;;;5048287;28;20531;-59
2022/07/27 06:26:24;;;;;;;0.00;0.00;;;;;;;;;;5038904;28;20030;-59
2022/07/27 06:28:51;;;;;;;0.00;0.00;;;;;;;;;;5039787;28;20021;-58
2022/07/27 06:31:16;;;;;;;0.00;0.00;;;;;;;;;;5036392;28;20021;-58
2022/07/27 06:33:42;;;;;;;3.93;0.30;;;;;;;;;;5038347;28;20535;-59
2022/07/27 06:36:07;;;;;;;0.00;0.00;;;;;;;;;;5043180;28;20271;-58
2022/07/27 06:38:33;;;;;;;0.00;0.00;;;;;;;;;;5036611;28;20045;-59
2022/07/27 06:40:58;;;;;;;0.80;0.80;;;;;;;;;;5044099;28;20061;-59
2022/07/27 06:43:24;;;;;;;0.00;0.00;;;;;;;;;;5036089;28;20477;-59
2022/07/27 06:45:52;;;;;;;0.00;0.00;;;;;;;;;;5038196;28;21035;-58
2022/07/27 06:48:22;;;;;;;0.10;0.10;;;;;;;;;;5039129;28;20025;-59
2022/07/27 06:50:48;;;;;;;0.00;0.00;;;;;;;;;;5043882;28;20082;-59
2022/07/27 06:53:14;;;;;;;0.00;0.00;;;;;;;;;;5038766;28;20088;-59
2022/07/27 06:55:40;;;;;;;0.00;0.00;;;;;;;;;;5034545;28;20108;-59
2022/07/27 06:58:05;;;;;;;0.00;0.00;;;;;;;;;;5041337;28;20485;-59
2022/07/27 07:00:33;;;;;;;0.30;0.30;;;;;;;;;;5044545;28;20029;-58
2022/07/27 07:03:00;;;;;;;0.63;0.25;;;;;;;;;;5039410;28;20120;-59
2022/07/27 07:05:26;;;;;;;0.00;0.00;;;;;;;;;;5040067;28;20513;-59
2022/07/27 07:07:52;;;;;;;0.00;0.00;;;;;;;;;;5039127;28;20033;-59
2022/07/27 07:10:20;;;;;;;0.00;0.00;;;;;;;;;;5039466;28;20033;-59
2022/07/27 07:12:45;;;;;;;0.00;0.00;;;;;;;;;;5040592;28;20060;-59
2022/07/27 07:15:15;;;;;;;0.00;0.00;;;;;;;;;;5034453;28;20049;-58
2022/07/27 07:17:43;;;;;;;0.00;0.00;;;;;;;;;;5036787;28;20029;-58
2022/07/27 07:20:11;;;;;;;0.13;0.13;;;;;;;;;;5040757;28;20053;-58
2022/07/27 07:22:39;;;;;;;0.00;0.00;;;;;;;;;;5041024;28;20484;-58
2022/07/27 07:25:05;;;;;;;0.00;0.00;;;;;;;;;;5039889;28;20454;-58
2022/07/27 07:27:30;;;;;;;0.30;0.30;;;;;;;;;;5036624;28;20025;-58
2022/07/27 07:29:55;;;;;;;0.10;0.10;;;;;;;;;;5040101;28;20032;-58
2022/07/27 07:32:23;;;;;;;0.00;0.00;;;;;;;;;;5039220;28;20025;-58
2022/07/27 07:34:49;;;;;;;1.65;0.20;;;;;;;;;;5041006;28;20117;-58
2022/07/27 07:37:14;;;;;;;0.65;0.08;;;;;;;;;;5038930;28;20088;-59
2022/07/27 07:39:40;;;;;;;0.13;0.08;;;;;;;;;;5036625;28;20021;-59
2022/07/27 07:42:05;;;;;;;0.15;0.10;;;;;;;;;;5036350;28;20033;-59
2022/07/27 07:44:30;;;;;;;0.00;0.00;;;;;;;;;;5041902;28;20017;-59
2022/07/27 07:46:55;;;;;;;0.00;0.00;;;;;;;;;;5041375;28;20060;-58
2022/07/27 07:49:21;;;;;;;0.13;0.10;;;;;;;;;;5041042;28;20358;-59
2022/07/27 07:51:47;;;;;;;0.00;0.00;;;;;;;;;;5038598;28;20086;-59
2022/07/27 07:54:13;;;;;;;0.00;0.00;;;;;;;;;;5037809;28;20030;-59
2022/07/27 07:56:38;;;;;;;0.00;0.00;;;;;;;;;;5038423;28;20029;-59
2022/07/27 07:59:03;;;;;;;0.00;0.00;;;;;;;;;;5040348;28;20014;-59
2022/07/27 08:01:29;;;;;;;0.73;0.73;;;;;;;;;;5039786;28;20036;-58
2022/07/27 08:03:54;;;;;;;0.00;0.00;;;;;;;;;;5041382;28;20049;-59
2022/07/27 08:06:19;;;;;;;0.00;0.00;;;;;;;;;;5033039;28;20017;-58
2022/07/27 08:08:46;;;;;;;0.50;0.28;;;;;;;;;;5035683;28;20264;-57
2022/07/27 08:11:12;;;;;;;0.57;0.57;;;;;;;;;;5041855;28;20025;-57
2022/07/27 08:13:37;;;;;;;0.00;0.00;;;;;;;;;;5040257;28;20087;-57
2022/07/27 08:16:02;;;;;;;0.00;0.00;;;;;;;;;;5033375;28;20021;-58
2022/07/27 08:18:28;;;;;;;1.77;1.67;;;;;;;;;;5037018;28;20414;-58
2022/07/27 08:20:53;;;;;;;0.85;0.22;;;;;;;;;;5043874;28;20140;-57
2022/07/27 08:23:18;;;;;;;0.00;0.00;;;;;;;;;;5040260;28;20079;-57
2022/07/27 08:25:44;;;;;;;0.10;0.10;;;;;;;;;;5038853;28;20333;-58
2022/07/27 08:28:09;;;;;;;0.15;0.10;;;;;;;;;;5042731;28;20542;-57
2022/07/27 08:30:37;;;;;;;0.00;0.00;;;;;;;;;;5038905;28;20025;-58
2022/07/27 08:33:03;;;;;;;0.00;0.00;;;;;;;;;;5038461;28;20325;-57
2022/07/27 08:35:29;;;;;;;0.00;0.00;;;;;;;;;;5041211;28;20025;-57
2022/07/27 08:37:55;;;;;;;0.00;0.00;;;;;;;;;;5039579;28;20097;-57
2022/07/27 08:40:20;;;;;;;0.10;0.10;;;;;;;;;;5034469;28;20124;-58
2022/07/27 08:42:45;;;;;;;5.00;4.57;;;;;;;;;;5040790;28;20064;-58
2022/07/27 08:45:15;;;;;;;0.45;0.45;;;;;;;;;;5035619;28;20030;-58
2022/07/27 08:47:40;;;;;;;0.00;0.00;;;;;;;;;;5043076;28;20117;-58
2022/07/27 08:50:22;;;;;;;0.32;0.30;;;;;;;;;;5037059;28;20104;-59
2022/07/27 08:52:48;;;;;;;0.45;0.20;;;;;;;;;;5039222;28;20041;-59
2022/07/27 08:55:13;;;;;;;3.25;0.98;;;;;;;;;;5034234;28;20045;-58
2022/07/27 08:57:45;;;;;;;6.25;0.93;;;;;;;;;;5036313;28;20053;-58
2022/07/27 09:00:11;;;;;;;2.20;0.35;;;;;;;;;;5033772;28;20048;-62
2022/07/27 09:02:37;;;;;;;0.00;0.00;;;;;;;;;;5038759;28;20387;-62
2022/07/27 09:05:05;;;;;;;5.60;3.63;;;;;;;;;;5040936;28;20137;-62
2022/07/27 09:07:31;;;;;;;0.10;0.10;;;;;;;;;;5037390;28;20017;-62
2022/07/27 09:09:56;;;;;;;0.00;0.00;;;;;;;;;;5039544;28;20095;-62
2022/07/27 09:12:25;;;;;;;0.00;0.00;;;;;;;;;;5038847;28;20256;-61
2022/07/27 09:14:51;;;;;;;0.25;0.25;;;;;;;;;;5034160;28;20513;-60
2022/07/27 09:17:19;;;;;;;0.00;0.00;;;;;;;;;;5047880;28;20103;-61
2022/07/27 09:19:53;;;;;;;0.00;0.00;;;;;;;;;;5048885;28;20514;-62
2022/07/27 09:22:37;;;;;;;0.00;0.00;;;;;;;;;;5051048;28;20512;-61
2022/07/27 09:25:02;;;;;;;1.08;0.70;;;;;;;;;;5045612;28;21501;-64
2022/07/27 09:27:31;;;;;;;0.52;0.52;;;;;;;;;;5043673;28;20025;-62
2022/07/27 09:30:01;;;;;;;1.67;1.08;;;;;;;;;;5043751;28;20104;-62
2022/07/27 09:32:26;;;;;;;0.00;0.00;;;;;;;;;;5046881;28;20159;-61
2022/07/27 09:34:51;;;;;;;0.50;0.47;;;;;;;;;;5037322;28;20705;-61
2022/07/27 09:37:26;;;;;;;2.08;0.60;;;;;;;;;;5039811;28;20017;-62
2022/07/27 09:40:11;;;;;;;8.90;0.57;;;;;;;;;;5039049;28;20017;-62
2022/07/27 09:42:36;;;;;;;0.10;0.10;;;;;;;;;;5040392;28;20029;-62
2022/07/27 09:45:21;;;;;;;0.00;0.00;;;;;;;;;;5039174;28;20034;-62
2022/07/27 09:47:47;;;;;;;0.20;0.10;;;;;;;;;;5038602;28;20037;-62
2022/07/27 09:50:16;;;;;;;0.00;0.00;;;;;;;;;;5037403;28;20029;-62
2022/07/27 09:52:42;;;;;;;0.50;0.25;;;;;;;;;;5037827;28;20021;-62
2022/07/27 09:55:10;;;;;;;0.25;0.25;;;;;;;;;;5040303;28;20025;-62
2022/07/27 09:57:55;;;;;;;0.00;0.00;;;;;;;;;;5040810;28;20025;-60
2022/07/27 10:00:20;;;;;;;0.00;0.00;;;;;;;;;;5038419;28;20074;-61
2022/07/27 10:02:46;;;;;;;0.00;0.00;;;;;;;;;;5043908;28;20112;-62
2022/07/27 10:05:12;;;;;;;0.00;0.00;;;;;;;;;;5042979;28;20044;-60
2022/07/27 10:07:38;;;;;;;0.00;0.00;;;;;;;;;;5041497;28;20513;-61
2022/07/27 10:10:06;;;;;;;0.00;0.00;;;;;;;;;;5037722;28;20037;-61
2022/07/27 10:12:32;;;;;;;0.00;0.00;;;;;;;;;;5040738;28;20024;-61
2022/07/27 10:14:57;;;;;;;0.23;0.23;;;;;;;;;;5041913;28;20040;-62
2022/07/27 10:17:25;;;;;;;0.00;0.00;;;;;;;;;;5039883;28;20351;-62
2022/07/27 10:19:51;;;;;;;0.00;0.00;;;;;;;;;;5038002;28;20275;-61
2022/07/27 10:22:36;;;;;;;0.08;0.08;;;;;;;;;;5040760;28;20466;-60
2022/07/27 10:25:01;;;;;;;0.00;0.00;;;;;;;;;;5039190;28;20085;-61
2022/07/27 10:27:27;;;;;;;0.00;0.00;;;;;;;;;;5036185;28;20033;-61
2022/07/27 10:29:59;;;;;;;1.08;1.05;;;;;;;;;;5021346;28;20493;-60
2022/07/27 10:32:29;;;;;;;0.32;0.32;;;;;;;;;;5039747;28;20021;-61
2022/07/27 10:34:55;;;;;;;0.35;0.32;;;;;;;;;;5039337;28;20021;-61
2022/07/27 10:37:28;;;;;;;0.17;0.17;;;;;;;;;;5036320;28;20108;-61
2022/07/27 10:42:38;;;;;;;0.10;0.10;;;;;;;;;;5039011;28;20091;-62
2022/07/27 10:45:08;;;;;;;0.00;0.00;;;;;;;;;;5037651;28;20033;-61
2022/07/27 10:47:36;;;;;;;0.00;0.00;;;;;;;;;;5039162;28;20055;-61
2022/07/27 10:50:16;;;;;;;0.55;0.55;;;;;;;;;;5037469;28;20434;-60
2022/07/27 10:52:59;;;;;;;0.00;0.00;;;;;;;;;;5038701;28;20026;-60
2022/07/27 10:55:35;;;;;;;0.00;0.00;;;;;;;;;;5040499;28;20676;-60
2022/07/27 10:58:09;;;;;;;0.00;0.00;;;;;;;;;;5034383;28;20112;-60
2022/07/27 11:00:49;;;;;;;0.25;0.25;;;;;;;;;;5038245;28;20048;-60
2022/07/27 11:03:25;;;;;;;0.22;0.22;;;;;;;;;;5040809;28;20028;-62
2022/07/27 11:06:01;;;;;;;1.55;0.30;;;;;;;;;;5038041;28;20108;-61
2022/07/27 11:08:30;;;;;;;11.15;0.77;;;;;;;;;;5037052;28;20130;-61
2022/07/27 11:10:56;;;;;;;2.83;0.65;;;;;;;;;;5035562;28;20044;-61
2022/07/27 11:13:22;;;;;;;0.13;0.13;;;;;;;;;;5038694;28;20021;-61
2022/07/27 11:16:05;;;;;;;0.00;0.00;;;;;;;;;;5033891;28;20033;-61
2022/07/27 11:18:34;;;;;;;0.00;0.00;;;;;;;;;;5036418;28;20406;-61
2022/07/27 11:21:02;;;;;;;;;;;;;;;;;;5037055;28;20033;-60
2022/07/27 11:23:27;;;;;;;0.00;0.00;;;;;;;;;;5035711;28;19917;-61
2022/07/27 11:25:59;;;;;;;0.22;0.22;;;;;;;;;;5035641;28;20021;-61
2022/07/27 11:28:31;;;;;;;0.10;0.00;;;;;;;;;;5036711;28;20378;-61
2022/07/27 11:30:57;;;;;;;0.00;0.00;;;;;;;;;;5035923;28;20017;-61
2022/07/27 11:33:24;;;;;;;0.00;0.00;;;;;;;;;;5036240;28;20358;-61
2022/07/27 11:35:53;;;;;;;0.13;0.13;;;;;;;;;;5038257;28;20035;-61
2022/07/27 11:38:19;;;;;;;1.45;1.27;;;;;;;;;;5035318;28;20021;-60
2022/07/27 11:40:48;;;;;;;0.03;0.03;;;;;;;;;;5035969;28;20030;-61
2022/07/27 11:43:32;;;;;;;0.55;0.47;;;;;;;;;;5037160;28;20021;-60
2022/07/27 11:46:12;;;;;;;0.00;0.00;;;;;;;;;;5037025;28;20034;-61
2022/07/27 11:48:44;;;;;;;0.00;0.00;;;;;;;;;;5038899;28;20040;-60
2022/07/27 11:51:09;;;;;;;0.10;0.10;;;;;;;;;;5038900;28;20112;-60
2022/07/27 11:53:38;;;;;;;0.00;0.00;;;;;;;;;;5035534;28;20434;-60
2022/07/27 11:56:06;;;;;;;0.00;0.00;;;;;;;;;;5037319;28;20023;-61
2022/07/27 11:58:31;;;;;;;0.00;0.00;;;;;;;;;;5037493;28;20020;-61
2022/07/27 12:00:56;;;;;;;0.00;0.00;;;;;;;;;;5038292;28;20020;-61
2022/07/27 12:03:22;;;;;;;0.00;0.00;;;;;;;;;;5037422;28;20060;-61
2022/07/27 12:05:55;;;;;;;0.10;0.10;;;;;;;;;;5037616;28;20267;-61
2022/07/27 12:08:20;;;;;;;0.00;0.00;;;;;;;;;;5037952;28;20534;-61
2022/07/27 12:11:05;;;;;;;0.00;0.00;;;;;;;;;;5039221;28;20041;-62
2022/07/27 12:13:31;;;;;;;0.00;0.00;;;;;;;;;;5037933;28;20028;-61
2022/07/27 12:15:57;;;;;;;0.00;0.00;;;;;;;;;;5036522;28;20457;-60
2022/07/27 12:18:31;;;;;;;0.43;0.43;;;;;;;;;;5039835;28;20017;-60
2022/07/27 12:20:56;;;;;;;0.00;0.00;;;;;;;;;;5038189;28;20017;-61
2022/07/27 12:23:27;;;;;;;0.30;0.22;;;;;;;;;;5036973;28;20523;-61
2022/07/27 12:25:53;;;;;;;0.22;0.22;;;;;;;;;;5037288;28;20047;-61
2022/07/27 12:28:22;;;;;;;0.00;0.00;;;;;;;;;;5036852;28;20032;-60
2022/07/27 12:30:49;;;;;;;0.05;0.00;;;;;;;;;;5036485;28;20092;-60
2022/07/27 12:33:35;;;;;;;0.00;0.00;;;;;;;;;;5037634;28;20519;-63
2022/07/27 12:36:02;;;;;;;0.00;0.00;;;;;;;;;;5036469;28;20026;-63
2022/07/27 12:38:38;;;;;;;0.00;0.00;;;;;;;;;;5039344;28;20092;-64
2022/07/27 12:41:03;;;;;;;0.00;0.00;;;;;;;;;;5037590;28;20033;-64
2022/07/27 12:43:31;;;;;;;0.00;0.00;;;;;;;;;;5037986;28;20074;-63
2022/07/27 12:45:59;;;;;;;0.35;0.03;;;;;;;;;;5037302;28;20017;-63
2022/07/27 12:48:40;;;;;;;0.00;0.00;;;;;;;;;;5038179;28;20123;-63
2022/07/27 12:51:12;;;;;;;0.00;0.00;;;;;;;;;;5038141;28;20033;-64
2022/07/27 12:53:37;;;;;;;0.00;0.00;;;;;;;;;;5039741;28;20071;-63
2022/07/27 12:56:04;;;;;;;0.00;0.00;;;;;;;;;;5040838;28;20413;-63
2022/07/27 12:58:29;;;;;;;0.00;0.00;;;;;;;;;;5042063;28;20020;-63
2022/07/27 13:00:54;;;;;;;0.00;0.00;;;;;;;;;;5040616;28;20112;-63
2022/07/27 13:03:23;;;;;;;0.00;0.00;;;;;;;;;;5041037;28;20040;-63
2022/07/27 13:05:52;;;;;;;0.00;0.00;;;;;;;;;;5023306;28;20032;-63
2022/07/27 13:08:20;;;;;;;0.00;0.00;;;;;;;;;;5045635;28;20055;-64
2022/07/27 13:10:50;;;;;;;0.00;0.00;;;;;;;;;;5041502;28;20064;-64
2022/07/27 13:13:23;;;;;;;0.08;0.08;;;;;;;;;;5042210;28;20025;-63
2022/07/27 13:15:48;;;;;;;0.00;0.00;;;;;;;;;;5040638;28;20028;-62
2022/07/27 13:18:13;;;;;;;0.00;0.00;;;;;;;;;;5041548;28;20087;-63
2022/07/27 13:20:41;;;;;;;0.00;0.00;;;;;;;;;;5041754;28;20508;-63
2022/07/27 13:23:07;;;;;;;0.38;0.10;;;;;;;;;;5041483;28;20072;-64
2022/07/27 13:25:32;;;;;;;0.00;0.00;;;;;;;;;;5042125;28;20071;-64
2022/07/27 13:27:58;;;;;;;0.30;0.30;;;;;;;;;;5040673;28;20021;-63
2022/07/27 13:30:26;;;;;;;0.10;0.10;;;;;;;;;;5042723;28;20025;-63
2022/07/27 13:32:51;;;;;;;0.57;0.57;;;;;;;;;;5043936;28;20128;-63
2022/07/27 13:35:16;;;;;;;0.65;0.65;;;;;;;;;;5041629;28;20116;-63
2022/07/27 13:37:42;;;;;;;0.00;0.00;;;;;;;;;;5042259;28;20064;-63
2022/07/27 13:40:07;;;;;;;0.00;0.00;;;;;;;;;;5040961;28;20025;-63
2022/07/27 13:42:33;;;;;;;0.10;0.10;;;;;;;;;;5041162;28;20482;-63
2022/07/27 13:45:01;;;;;;;0.20;0.15;;;;;;;;;;5041277;28;20115;-64
2022/07/27 13:47:29;;;;;;;0.00;0.00;;;;;;;;;;5040960;28;20425;-64
2022/07/27 13:49:57;;;;;;;0.25;0.10;;;;;;;;;;5041059;28;20025;-63
2022/07/27 13:52:24;;;;;;;0.00;0.00;;;;;;;;;;5041468;28;20028;-63
2022/07/27 13:54:50;;;;;;;0.00;0.00;;;;;;;;;;5040894;28;20017;-62
2022/07/27 13:57:15;;;;;;;0.93;0.90;;;;;;;;;;5040040;28;20037;-63
2022/07/27 13:59:40;;;;;;;0.00;0.00;;;;;;;;;;5040857;28;20043;-62
2022/07/27 14:02:05;;;;;;;0.00;0.00;;;;;;;;;;5040367;28;20104;-63
2022/07/27 14:04:34;;;;;;;0.00;0.00;;;;;;;;;;5042274;28;20329;-63
2022/07/27 14:07:02;;;;;;;0.30;0.30;;;;;;;;;;5042051;28;20103;-62
2022/07/27 14:12:12;;;;;;;0.00;0.00;;;;;;;;;;5040715;28;20028;-63
2022/07/27 14:14:37;;;;;;;0.00;0.00;;;;;;;;;;5031422;28;20458;-63
2022/07/27 14:17:02;;;;;;;0.00;0.00;;;;;;;;;;5040962;28;20659;-63
2022/07/27 14:19:29;;;;;;;0.00;0.00;;;;;;;;;;5039438;28;20441;-64
2022/07/27 14:21:57;;;;;;;0.00;0.00;;;;;;;;;;5041272;28;20018;-64
2022/07/27 14:24:22;;;;;;;0.10;0.10;;;;;;;;;;5040588;28;21590;-63
2022/07/27 14:26:48;;;;;;;0.00;0.00;;;;;;;;;;5041019;28;20032;-63
2022/07/27 14:29:13;;;;;;;0.40;0.40;;;;;;;;;;5039492;28;20021;-63
2022/07/27 14:31:38;;;;;;;0.35;0.13;;;;;;;;;;5040480;28;20021;-63
2022/07/27 14:34:04;;;;;;;0.00;0.00;;;;;;;;;;5042543;28;20051;-62
2022/07/27 14:36:29;;;;;;;0.00;0.00;;;;;;;;;;5041225;28;20267;-62
2022/07/27 14:38:54;;;;;;;0.00;0.00;;;;;;;;;;5040328;28;20047;-62
2022/07/27 14:41:22;;;;;;;0.00;0.00;;;;;;;;;;5031289;28;20021;-62
2022/07/27 14:43:47;;;;;;;0.00;0.00;;;;;;;;;;5038769;28;20261;-62
2022/07/27 14:46:13;;;;;;;0.00;0.00;;;;;;;;;;5037716;28;20355;-61
2022/07/27 14:48:38;;;;;;;0.00;0.00;;;;;;;;;;5035937;28;20263;-62
2022/07/27 14:51:03;;;;;;;0.00;0.00;;;;;;;;;;5036822;28;20017;-62
2022/07/27 14:53:28;;;;;;;0.00;0.00;;;;;;;;;;5040310;28;20256;-62
2022/07/27 14:55:53;;;;;;;1.50;0.50;;;;;;;;;;5039892;28;20021;-63